Time;durP1;ratioP1;P1;durP2;ratioP2;P2;SDS_P1;SDS_P2;PMS_P1;PMS_P2;Temp;Humidity;BMP_temperature;BMP_pressure;BME280_temperature;BME280_humidity;BME280_pressure;Samples;Min_cycle;Max_cycle;Signal;HPM_P1;HPM_P2
2023/03/05 00:01:41;;;;;;;17.08;8.45;;;;;;;;;;5009431;28;20105;-81
2023/03/05 00:04:08;;;;;;;19.45;10.10;;;;;;;;;;5002807;28;20105;-82
2023/03/05 00:06:34;;;;;;;19.17;10.80;;;;;;;;;;5001126;28;20053;-81
2023/03/05 00:09:00;;;;;;;21.85;9.98;;;;;;;;;;5009549;28;20081;-81
2023/03/05 00:11:28;;;;;;;19.15;10.38;;;;;;;;;;5010032;28;20030;-80
2023/03/05 00:13:55;;;;;;;18.70;9.07;;;;;;;;;;5018914;28;20096;-80
2023/03/05 00:16:21;;;;;;;16.73;10.30;;;;;;;;;;5018073;28;20077;-80
2023/03/05 00:18:48;;;;;;;23.15;10.77;;;;;;;;;;5020074;28;20032;-80
2023/03/05 00:21:18;;;;;;;20.23;9.23;;;;;;;;;;5016461;28;20072;-82
2023/03/05 00:23:44;;;;;;;19.15;10.00;;;;;;;;;;5015877;28;20018;-80
2023/03/05 00:26:10;;;;;;;17.17;9.15;;;;;;;;;;5016188;28;20374;-81
2023/03/05 00:28:36;;;;;;;20.15;10.23;;;;;;;;;;5002880;28;20121;-80
2023/03/05 00:31:02;;;;;;;19.40;10.35;;;;;;;;;;5000758;28;20058;-80
2023/03/05 00:33:28;;;;;;;18.75;10.15;;;;;;;;;;4998819;28;20117;-81
2023/03/05 00:35:54;;;;;;;16.35;8.38;;;;;;;;;;5003894;28;20069;-80
2023/03/05 00:38:20;;;;;;;18.05;9.43;;;;;;;;;;5019262;28;20030;-80
2023/03/05 00:40:49;;;;;;;18.08;9.60;;;;;;;;;;5017720;28;20029;-79
2023/03/05 00:43:15;;;;;;;18.23;8.35;;;;;;;;;;5001836;28;20434;-79
2023/03/05 00:45:41;;;;;;;21.40;10.25;;;;;;;;;;5004057;28;20027;-80
2023/03/05 00:48:07;;;;;;;19.90;9.73;;;;;;;;;;5016577;28;20088;-80
2023/03/05 00:50:33;;;;;;;20.83;10.30;;;;;;;;;;5016778;28;20350;-80
2023/03/05 00:52:59;;;;;;;17.58;9.60;;;;;;;;;;5015638;28;20033;-80
2023/03/05 00:55:25;;;;;;;19.58;9.57;;;;;;;;;;4997177;28;20262;-80
2023/03/05 00:57:51;;;;;;;19.30;8.68;;;;;;;;;;5014036;28;20045;-80
2023/03/05 01:00:17;;;;;;;17.85;8.57;;;;;;;;;;5007597;28;20026;-80
2023/03/05 01:02:43;;;;;;;17.77;9.73;;;;;;;;;;4999727;28;20076;-79
2023/03/05 01:05:11;;;;;;;19.02;10.15;;;;;;;;;;5008865;28;20030;-79
2023/03/05 01:07:37;;;;;;;17.90;8.63;;;;;;;;;;5006811;28;20648;-80
2023/03/05 01:10:04;;;;;;;19.15;9.88;;;;;;;;;;5002129;28;20061;-80
2023/03/05 01:12:30;;;;;;;18.52;9.00;;;;;;;;;;5002909;28;20030;-80
2023/03/05 01:14:56;;;;;;;14.38;9.02;;;;;;;;;;5015628;28;20041;-79
2023/03/05 01:17:22;;;;;;;16.17;9.02;;;;;;;;;;5004259;28;20022;-80
2023/03/05 01:19:48;;;;;;;15.88;9.07;;;;;;;;;;5000803;28;20079;-81
2023/03/05 01:22:14;;;;;;;18.90;10.05;;;;;;;;;;5015394;28;20026;-80
2023/03/05 01:24:40;;;;;;;20.20;9.70;;;;;;;;;;5013130;28;20477;-80
2023/03/05 01:27:06;;;;;;;17.40;9.98;;;;;;;;;;5010048;28;20026;-80
2023/03/05 01:29:32;;;;;;;20.52;11.02;;;;;;;;;;5014646;28;20023;-79
2023/03/05 01:31:58;;;;;;;20.48;10.70;;;;;;;;;;4998276;28;20445;-79
2023/03/05 01:34:24;;;;;;;20.52;9.77;;;;;;;;;;5002460;28;20061;-80
2023/03/05 01:36:50;;;;;;;17.50;8.70;;;;;;;;;;5013565;28;20509;-80
2023/03/05 01:39:16;;;;;;;16.58;9.00;;;;;;;;;;5016402;28;20049;-80
2023/03/05 01:41:43;;;;;;;19.27;9.45;;;;;;;;;;5015240;28;20398;-80
2023/03/05 01:44:28;;;;;;;17.10;8.43;;;;;;;;;;5008543;28;20040;-80
2023/03/05 01:46:54;;;;;;;18.52;10.32;;;;;;;;;;5013058;28;20054;-80
2023/03/05 01:49:31;;;;;;;19.27;9.10;;;;;;;;;;5020497;28;20030;-80
2023/03/05 01:52:03;;;;;;;18.15;9.30;;;;;;;;;;5020485;28;20049;-79
2023/03/05 01:54:35;;;;;;;19.30;9.57;;;;;;;;;;5008099;28;20481;-80
2023/03/05 01:57:04;;;;;;;19.60;9.82;;;;;;;;;;5008167;28;20076;-80
2023/03/05 01:59:30;;;;;;;18.77;8.32;;;;;;;;;;4997405;28;20078;-80
2023/03/05 02:01:57;;;;;;;20.23;9.32;;;;;;;;;;4998095;28;20027;-79
2023/03/05 02:04:27;;;;;;;18.55;9.88;;;;;;;;;;5011594;28;20496;-80
2023/03/05 02:06:53;;;;;;;21.08;10.02;;;;;;;;;;5006003;28;20030;-79
2023/03/05 02:09:22;;;;;;;19.13;9.48;;;;;;;;;;5019547;28;20029;-80
2023/03/05 02:11:48;;;;;;;18.02;9.68;;;;;;;;;;5027237;28;20105;-80
2023/03/05 02:14:14;;;;;;;18.50;10.10;;;;;;;;;;5005723;28;20026;-80
2023/03/05 02:16:40;;;;;;;19.50;9.73;;;;;;;;;;5017653;28;20038;-80
2023/03/05 02:19:08;;;;;;;21.00;11.23;;;;;;;;;;5004640;28;20102;-81
2023/03/05 02:21:39;;;;;;;17.98;10.20;;;;;;;;;;5002061;28;20026;-81
2023/03/05 02:24:05;;;;;;;18.50;10.30;;;;;;;;;;5007584;28;20026;-80
2023/03/05 02:26:31;;;;;;;18.92;9.23;;;;;;;;;;5001420;28;20030;-80
2023/03/05 02:29:00;;;;;;;19.58;9.48;;;;;;;;;;5007053;28;20401;-80
2023/03/05 02:31:26;;;;;;;20.27;10.77;;;;;;;;;;5005503;28;20109;-81
2023/03/05 02:33:54;;;;;;;19.05;9.75;;;;;;;;;;5007721;28;20021;-80
2023/03/05 02:36:21;;;;;;;15.38;9.05;;;;;;;;;;5015079;28;20030;-80
2023/03/05 02:38:47;;;;;;;19.52;10.00;;;;;;;;;;5001683;28;20026;-80
2023/03/05 02:41:13;;;;;;;21.67;10.70;;;;;;;;;;5001487;28;20026;-80
2023/03/05 02:43:40;;;;;;;22.65;11.32;;;;;;;;;;5013284;28;20092;-81
2023/03/05 02:46:06;;;;;;;22.63;11.20;;;;;;;;;;5002351;28;20034;-81
2023/03/05 02:48:32;;;;;;;21.90;12.10;;;;;;;;;;5011086;28;20101;-80
2023/03/05 02:50:58;;;;;;;21.73;10.85;;;;;;;;;;5018468;28;20517;-80
2023/03/05 02:53:25;;;;;;;23.70;10.82;;;;;;;;;;5011741;28;20398;-80
2023/03/05 02:55:51;;;;;;;26.00;11.75;;;;;;;;;;5012377;28;20064;-80
2023/03/05 02:58:17;;;;;;;20.20;10.30;;;;;;;;;;5004200;28;20060;-80
2023/03/05 03:00:45;;;;;;;22.27;11.48;;;;;;;;;;5020255;28;20030;-80
2023/03/05 03:03:11;;;;;;;19.77;11.38;;;;;;;;;;5026477;28;20018;-79
2023/03/05 03:05:37;;;;;;;21.98;9.88;;;;;;;;;;5029672;28;20022;-79
2023/03/05 03:08:03;;;;;;;18.30;10.32;;;;;;;;;;5024608;28;20102;-79
2023/03/05 03:10:30;;;;;;;18.60;9.20;;;;;;;;;;5022977;28;20097;-80
2023/03/05 03:12:56;;;;;;;19.63;10.48;;;;;;;;;;5028726;28;20033;-79
2023/03/05 03:15:22;;;;;;;20.48;10.85;;;;;;;;;;5024503;28;20030;-80
2023/03/05 03:17:48;;;;;;;20.27;9.88;;;;;;;;;;5022750;28;20037;-80
2023/03/05 03:20:15;;;;;;;19.10;9.52;;;;;;;;;;5017893;28;20026;-80
2023/03/05 03:22:42;;;;;;;20.85;10.05;;;;;;;;;;5017206;28;20081;-80
2023/03/05 03:25:09;;;;;;;18.67;9.65;;;;;;;;;;5018268;28;20030;-80
2023/03/05 03:27:36;;;;;;;20.80;10.93;;;;;;;;;;5020816;28;20018;-80
2023/03/05 03:30:03;;;;;;;18.33;10.65;;;;;;;;;;5020594;28;20041;-79
2023/03/05 03:32:30;;;;;;;20.63;11.25;;;;;;;;;;5020748;28;20027;-81
2023/03/05 03:34:56;;;;;;;19.77;11.32;;;;;;;;;;5021765;28;20600;-80
2023/03/05 03:37:22;;;;;;;19.15;9.93;;;;;;;;;;5008603;28;20038;-80
2023/03/05 03:39:48;;;;;;;18.60;10.20;;;;;;;;;;5003050;28;20049;-80
2023/03/05 03:42:18;;;;;;;20.48;12.13;;;;;;;;;;5011988;28;20034;-81
2023/03/05 03:44:44;;;;;;;21.33;10.77;;;;;;;;;;5010236;28;20018;-79
2023/03/05 03:47:10;;;;;;;18.77;10.85;;;;;;;;;;5019359;28;20057;-79
2023/03/05 03:49:36;;;;;;;21.98;10.85;;;;;;;;;;5027227;28;20038;-79
2023/03/05 03:52:02;;;;;;;21.50;11.82;;;;;;;;;;5008332;28;20090;-79
2023/03/05 03:54:28;;;;;;;20.42;10.75;;;;;;;;;;5017233;28;20037;-79
2023/03/05 03:56:54;;;;;;;21.40;11.45;;;;;;;;;;5023149;28;20490;-81
2023/03/05 03:59:20;;;;;;;20.70;10.68;;;;;;;;;;5022069;28;20030;-80
2023/03/05 04:01:46;;;;;;;22.92;9.98;;;;;;;;;;5021134;28;20493;-80
2023/03/05 04:04:13;;;;;;;21.23;10.48;;;;;;;;;;5015765;28;20018;-81
2023/03/05 04:06:39;;;;;;;21.42;11.25;;;;;;;;;;5002978;28;20026;-80
2023/03/05 04:09:06;;;;;;;17.35;8.95;;;;;;;;;;5003705;28;20053;-80
2023/03/05 04:11:33;;;;;;;20.15;10.90;;;;;;;;;;5008596;28;20462;-80
2023/03/05 04:13:59;;;;;;;20.40;10.77;;;;;;;;;;5015648;28;20129;-81
2023/03/05 04:16:25;;;;;;;20.40;9.88;;;;;;;;;;5019954;28;20045;-80
2023/03/05 04:18:51;;;;;;;22.65;11.43;;;;;;;;;;5020837;28;20026;-80
2023/03/05 04:21:17;;;;;;;20.30;11.25;;;;;;;;;;5008873;28;20505;-80
2023/03/05 04:23:43;;;;;;;21.95;12.13;;;;;;;;;;5020686;28;20026;-80
2023/03/05 04:26:09;;;;;;;20.48;11.25;;;;;;;;;;5021711;28;20026;-80
2023/03/05 04:28:35;;;;;;;17.80;10.57;;;;;;;;;;5006016;28;20018;-80
2023/03/05 04:31:01;;;;;;;21.05;10.95;;;;;;;;;;5015754;28;20040;-80
2023/03/05 04:33:27;;;;;;;22.15;10.73;;;;;;;;;;5021275;28;20053;-80
2023/03/05 04:35:53;;;;;;;22.13;11.00;;;;;;;;;;5007592;28;20038;-79
2023/03/05 04:38:19;;;;;;;19.80;11.02;;;;;;;;;;5001420;28;20070;-80
2023/03/05 04:40:45;;;;;;;20.63;9.93;;;;;;;;;;5006394;28;20038;-79
2023/03/05 04:43:11;;;;;;;18.65;10.70;;;;;;;;;;5014988;28;20049;-80
2023/03/05 04:45:41;;;;;;;19.67;10.43;;;;;;;;;;5020869;28;20022;-81
2023/03/05 04:48:08;;;;;;;20.58;11.18;;;;;;;;;;5009983;28;20042;-78
2023/03/05 04:50:34;;;;;;;20.75;10.75;;;;;;;;;;5005045;28;20030;-80
2023/03/05 04:53:00;;;;;;;20.55;11.35;;;;;;;;;;5002079;28;20060;-81
2023/03/05 04:55:26;;;;;;;20.58;11.05;;;;;;;;;;5004255;28;20082;-80
2023/03/05 04:57:52;;;;;;;19.05;10.85;;;;;;;;;;5023055;28;20022;-80
2023/03/05 05:00:18;;;;;;;19.35;9.60;;;;;;;;;;5006575;28;20026;-81
2023/03/05 05:02:45;;;;;;;18.55;10.13;;;;;;;;;;5005494;28;20040;-80
2023/03/05 05:05:12;;;;;;;21.40;10.43;;;;;;;;;;5014653;28;20018;-80
2023/03/05 05:07:38;;;;;;;22.33;11.35;;;;;;;;;;5004601;28;20019;-80
2023/03/05 05:10:06;;;;;;;19.58;10.95;;;;;;;;;;5014674;28;20030;-81
2023/03/05 05:12:32;;;;;;;19.85;11.07;;;;;;;;;;5008436;28;20030;-80
2023/03/05 05:14:58;;;;;;;21.08;11.30;;;;;;;;;;5003218;28;20153;-80
2023/03/05 05:17:24;;;;;;;22.27;10.93;;;;;;;;;;5002323;28;20099;-81
2023/03/05 05:19:50;;;;;;;20.13;9.52;;;;;;;;;;5010520;28;20033;-80
2023/03/05 05:22:16;;;;;;;17.38;9.10;;;;;;;;;;5021501;28;20053;-80
2023/03/05 05:24:43;;;;;;;18.15;9.98;;;;;;;;;;5017662;28;20030;-81
2023/03/05 05:27:09;;;;;;;18.60;9.43;;;;;;;;;;5017504;28;20030;-79
2023/03/05 05:29:35;;;;;;;18.25;9.23;;;;;;;;;;5007944;28;20018;-80
2023/03/05 05:32:01;;;;;;;17.23;9.77;;;;;;;;;;5022925;28;20036;-81
2023/03/05 05:34:27;;;;;;;18.58;9.15;;;;;;;;;;5018043;28;20088;-81
2023/03/05 05:36:53;;;;;;;19.48;9.70;;;;;;;;;;5009165;28;20040;-79
2023/03/05 05:39:19;;;;;;;16.50;9.68;;;;;;;;;;5018440;28;20033;-79
2023/03/05 05:41:45;;;;;;;19.98;9.90;;;;;;;;;;5008566;28;20033;-79
2023/03/05 05:44:11;;;;;;;21.77;10.20;;;;;;;;;;4999151;28;20023;-79
2023/03/05 05:46:37;;;;;;;19.85;10.35;;;;;;;;;;5002031;28;20042;-79
2023/03/05 05:49:03;;;;;;;20.25;9.88;;;;;;;;;;5010733;28;20036;-80
2023/03/05 05:51:29;;;;;;;17.73;9.77;;;;;;;;;;5003969;28;20098;-79
2023/03/05 05:53:55;;;;;;;17.48;9.32;;;;;;;;;;5001330;28;20489;-80
2023/03/05 05:56:21;;;;;;;19.15;9.65;;;;;;;;;;5017290;28;20022;-80
2023/03/05 05:58:48;;;;;;;19.88;10.32;;;;;;;;;;5018780;28;20046;-79
2023/03/05 06:01:15;;;;;;;19.42;9.25;;;;;;;;;;5017841;28;20037;-79
2023/03/05 06:03:41;;;;;;;18.77;10.27;;;;;;;;;;5017123;28;20116;-80
2023/03/05 06:06:08;;;;;;;17.85;9.32;;;;;;;;;;5032414;28;20084;-81
2023/03/05 06:08:34;;;;;;;19.55;10.35;;;;;;;;;;5040583;28;20028;-80
2023/03/05 06:11:00;;;;;;;19.42;10.43;;;;;;;;;;5033310;28;20034;-81
2023/03/05 06:13:26;;;;;;;20.50;11.43;;;;;;;;;;5003760;28;20395;-80
2023/03/05 06:15:57;;;;;;;19.67;10.68;;;;;;;;;;5002123;28;20030;-80
2023/03/05 06:18:23;;;;;;;17.45;9.02;;;;;;;;;;5015344;28;20528;-80
2023/03/05 06:20:56;;;;;;;20.00;10.35;;;;;;;;;;5000883;28;20041;-81
2023/03/05 06:23:22;;;;;;;20.80;8.77;;;;;;;;;;5010467;28;20061;-80
2023/03/05 06:25:48;;;;;;;19.15;9.60;;;;;;;;;;5006319;28;20030;-78
2023/03/05 06:28:14;;;;;;;16.23;9.40;;;;;;;;;;5010366;28;20029;-79
2023/03/05 06:30:40;;;;;;;21.88;10.95;;;;;;;;;;5000819;28;20041;-81
2023/03/05 06:33:06;;;;;;;21.90;10.07;;;;;;;;;;5000586;28;20027;-80
2023/03/05 06:35:32;;;;;;;17.67;10.52;;;;;;;;;;5011665;28;20405;-80
2023/03/05 06:37:58;;;;;;;19.17;10.18;;;;;;;;;;5007143;28;20026;-80
2023/03/05 06:40:24;;;;;;;23.02;11.55;;;;;;;;;;5003462;28;20041;-80
2023/03/05 06:42:50;;;;;;;23.83;10.88;;;;;;;;;;5003387;28;20019;-81
2023/03/05 06:45:16;;;;;;;21.58;10.60;;;;;;;;;;5001326;28;20034;-81
2023/03/05 06:47:42;;;;;;;18.58;9.75;;;;;;;;;;5011627;28;20045;-81
2023/03/05 06:50:09;;;;;;;19.73;11.20;;;;;;;;;;5000146;28;20030;-79
2023/03/05 06:52:37;;;;;;;23.88;11.35;;;;;;;;;;5007675;28;20508;-80
2023/03/05 06:55:03;;;;;;;19.67;10.95;;;;;;;;;;5008414;28;20026;-80
2023/03/05 06:57:29;;;;;;;20.40;9.70;;;;;;;;;;5011984;28;20038;-80
2023/03/05 06:59:55;;;;;;;17.40;10.13;;;;;;;;;;5005502;28;20510;-79
2023/03/05 07:02:21;;;;;;;18.55;10.77;;;;;;;;;;5009582;28;20030;-79
2023/03/05 07:04:47;;;;;;;19.70;10.43;;;;;;;;;;5003174;28;20026;-81
2023/03/05 07:07:13;;;;;;;22.00;10.57;;;;;;;;;;5015079;28;20079;-80
2023/03/05 07:09:42;;;;;;;21.45;10.98;;;;;;;;;;5012443;28;20030;-79
2023/03/05 07:12:12;;;;;;;19.52;10.35;;;;;;;;;;5005157;28;20061;-80
2023/03/05 07:14:38;;;;;;;19.42;10.00;;;;;;;;;;5006878;28;20033;-80
2023/03/05 07:17:05;;;;;;;20.77;10.68;;;;;;;;;;5024431;28;20493;-81
2023/03/05 07:19:31;;;;;;;23.92;11.43;;;;;;;;;;5022233;28;20032;-81
2023/03/05 07:21:57;;;;;;;23.05;10.43;;;;;;;;;;5011775;28;20162;-80
2023/03/05 07:24:28;;;;;;;20.10;10.25;;;;;;;;;;5006550;28;20057;-81
2023/03/05 07:26:58;;;;;;;20.90;11.68;;;;;;;;;;5018584;28;20085;-81
2023/03/05 07:29:24;;;;;;;19.23;11.30;;;;;;;;;;5007344;28;20030;-80
2023/03/05 07:31:50;;;;;;;21.27;11.25;;;;;;;;;;5014256;28;20057;-81
2023/03/05 07:34:16;;;;;;;21.88;11.13;;;;;;;;;;5022479;28;20382;-79
2023/03/05 07:36:42;;;;;;;18.85;11.05;;;;;;;;;;5015144;28;20501;-80
2023/03/05 07:39:11;;;;;;;21.15;11.02;;;;;;;;;;5020985;28;20094;-81
2023/03/05 07:41:37;;;;;;;23.13;11.60;;;;;;;;;;5021421;28;20028;-80
2023/03/05 07:44:03;;;;;;;19.63;10.95;;;;;;;;;;5022475;28;20041;-80
2023/03/05 07:46:30;;;;;;;21.75;11.23;;;;;;;;;;5021471;28;20056;-81
2023/03/05 07:48:56;;;;;;;23.65;11.27;;;;;;;;;;5014182;28;20106;-81
2023/03/05 07:51:23;;;;;;;23.40;11.88;;;;;;;;;;5012894;28;20026;-81
2023/03/05 07:53:50;;;;;;;22.60;11.55;;;;;;;;;;5000406;28;20034;-80
2023/03/05 07:56:23;;;;;;;22.92;12.25;;;;;;;;;;5008833;28;20030;-80
2023/03/05 07:58:50;;;;;;;27.38;15.35;;;;;;;;;;5006827;28;20504;-81
2023/03/05 08:01:16;;;;;;;30.73;16.23;;;;;;;;;;5003017;28;20022;-81
2023/03/05 08:03:42;;;;;;;26.15;13.63;;;;;;;;;;5002289;28;20560;-80
2023/03/05 08:06:09;;;;;;;25.25;12.57;;;;;;;;;;4999440;28;20034;-80
2023/03/05 08:08:35;;;;;;;26.67;12.82;;;;;;;;;;5003585;28;20113;-80
2023/03/05 08:11:12;;;;;;;27.27;12.25;;;;;;;;;;5010635;28;20026;-80
2023/03/05 08:13:39;;;;;;;25.00;12.40;;;;;;;;;;5003660;28;20034;-80
2023/03/05 08:16:06;;;;;;;25.55;12.57;;;;;;;;;;5008165;28;20108;-80
2023/03/05 08:18:32;;;;;;;21.55;10.93;;;;;;;;;;5014667;28;20037;-80
2023/03/05 08:20:58;;;;;;;23.33;12.30;;;;;;;;;;5021093;28;20056;-80
2023/03/05 08:23:24;;;;;;;20.15;12.88;;;;;;;;;;5004042;28;20482;-80
2023/03/05 08:25:50;;;;;;;20.77;11.35;;;;;;;;;;5016746;28;20018;-80
2023/03/05 08:28:18;;;;;;;20.17;10.65;;;;;;;;;;5008544;28;20037;-81
2023/03/05 08:30:45;;;;;;;20.90;11.40;;;;;;;;;;5007622;28;20113;-81
2023/03/05 08:33:11;;;;;;;20.58;11.05;;;;;;;;;;5013258;28;20033;-81
2023/03/05 08:35:37;;;;;;;23.70;12.98;;;;;;;;;;5015843;28;20042;-80
2023/03/05 08:38:03;;;;;;;21.73;11.57;;;;;;;;;;5019409;28;20033;-81
2023/03/05 08:40:29;;;;;;;20.20;11.25;;;;;;;;;;5014072;28;20093;-80
2023/03/05 08:42:55;;;;;;;20.33;10.10;;;;;;;;;;5013485;28;20033;-81
2023/03/05 08:45:22;;;;;;;20.08;11.25;;;;;;;;;;5019352;28;20053;-81
2023/03/05 08:47:48;;;;;;;21.42;10.57;;;;;;;;;;5027511;28;20033;-80
2023/03/05 08:50:14;;;;;;;21.05;11.35;;;;;;;;;;5012885;28;20053;-80
2023/03/05 08:52:40;;;;;;;21.88;12.10;;;;;;;;;;5022282;28;20481;-80
2023/03/05 08:55:06;;;;;;;19.50;10.55;;;;;;;;;;5018813;28;20030;-79
2023/03/05 08:57:32;;;;;;;25.02;13.05;;;;;;;;;;5017308;28;20028;-78
2023/03/05 08:59:58;;;;;;;21.83;11.82;;;;;;;;;;5012561;28;20038;-80
2023/03/05 09:02:24;;;;;;;20.83;10.93;;;;;;;;;;5005205;28;20028;-80
2023/03/05 09:04:50;;;;;;;24.25;11.55;;;;;;;;;;5006135;28;20048;-80
2023/03/05 09:07:16;;;;;;;21.00;11.35;;;;;;;;;;5013056;28;20029;-80
2023/03/05 09:09:42;;;;;;;21.13;11.07;;;;;;;;;;5025647;28;20022;-80
2023/03/05 09:12:09;;;;;;;22.35;11.07;;;;;;;;;;5024810;28;20022;-80
2023/03/05 09:14:35;;;;;;;21.13;11.95;;;;;;;;;;5024022;28;20088;-81
2023/03/05 09:17:01;;;;;;;21.77;11.43;;;;;;;;;;5019789;28;20473;-81
2023/03/05 09:19:27;;;;;;;21.17;11.45;;;;;;;;;;5015783;28;20506;-81
2023/03/05 09:21:53;;;;;;;21.40;12.02;;;;;;;;;;5005447;28;20026;-81
2023/03/05 09:24:19;;;;;;;25.27;13.27;;;;;;;;;;5002596;28;20030;-80
2023/03/05 09:26:45;;;;;;;25.23;13.68;;;;;;;;;;5006678;28;20098;-80
2023/03/05 09:29:11;;;;;;;20.95;11.63;;;;;;;;;;5025217;28;20030;-80
2023/03/05 09:31:37;;;;;;;21.67;11.48;;;;;;;;;;5019541;28;20035;-81
2023/03/05 09:34:04;;;;;;;20.95;10.63;;;;;;;;;;5017191;28;20101;-81
2023/03/05 09:36:31;;;;;;;22.42;12.38;;;;;;;;;;5019276;28;20041;-81
2023/03/05 09:38:57;;;;;;;18.90;10.13;;;;;;;;;;5006707;28;20490;-80
2023/03/05 09:41:30;;;;;;;19.63;10.23;;;;;;;;;;5011736;28;20032;-82
2023/03/05 09:46:59;;;;;;;;;;;;;;;;;;4748707;28;20052;-80
2023/03/05 09:49:31;;;;;;;26.38;13.18;;;;;;;;;;5011835;28;20509;-78
2023/03/05 09:52:02;;;;;;;22.03;11.73;;;;;;;;;;5018439;28;20026;-81
2023/03/05 09:54:37;;;;;;;19.85;11.15;;;;;;;;;;5016261;28;20485;-78
2023/03/05 09:57:04;;;;;;;20.02;12.20;;;;;;;;;;5016545;28;20051;-78
2023/03/05 09:59:34;;;;;;;21.50;11.57;;;;;;;;;;5006526;28;20025;-78
2023/03/05 10:02:03;;;;;;;18.98;11.30;;;;;;;;;;5014941;28;20020;-79
2023/03/05 10:04:49;;;;;;;19.55;11.20;;;;;;;;;;5018997;28;20013;-81
2023/03/05 10:07:20;;;;;;;20.02;10.88;;;;;;;;;;5008214;28;20398;-78
2023/03/05 10:09:50;;;;;;;20.52;11.27;;;;;;;;;;5012269;28;20113;-79
2023/03/05 10:12:26;;;;;;;18.48;10.98;;;;;;;;;;5019333;28;20041;-79
2023/03/05 10:14:52;;;;;;;21.08;11.18;;;;;;;;;;5010271;28;20533;-79
2023/03/05 10:17:37;;;;;;;19.58;10.70;;;;;;;;;;5001891;28;20030;-80
2023/03/05 10:20:22;;;;;;;17.23;10.93;;;;;;;;;;5000558;28;20065;-80
2023/03/05 10:22:54;;;;;;;19.58;11.65;;;;;;;;;;5003662;28;20023;-80
2023/03/05 10:25:25;;;;;;;17.83;10.48;;;;;;;;;;4999931;28;20019;-80
2023/03/05 10:27:56;;;;;;;16.33;9.73;;;;;;;;;;5014532;28;20030;-81
2023/03/05 10:30:32;;;;;;;20.30;10.57;;;;;;;;;;5017950;28;20026;-80
2023/03/05 10:33:10;;;;;;;21.23;11.27;;;;;;;;;;5021856;28;20034;-79
2023/03/05 10:35:55;;;;;;;22.15;11.15;;;;;;;;;;5005294;28;20049;-80
2023/03/05 10:38:30;;;;;;;19.40;10.88;;;;;;;;;;5009776;28;20080;-79
2023/03/05 10:40:56;;;;;;;23.33;12.02;;;;;;;;;;5013942;28;20113;-79
2023/03/05 10:43:35;;;;;;;24.55;11.75;;;;;;;;;;5021227;28;20018;-80
2023/03/05 10:46:03;;;;;;;19.77;11.27;;;;;;;;;;5012187;28;20030;-79
2023/03/05 10:48:44;;;;;;;17.70;9.95;;;;;;;;;;5002485;28;20560;-79
2023/03/05 10:51:17;;;;;;;19.33;10.93;;;;;;;;;;5019743;28;20022;-78
2023/03/05 10:53:53;;;;;;;20.50;11.38;;;;;;;;;;5008700;28;20033;-78
2023/03/05 10:56:20;;;;;;;20.05;9.77;;;;;;;;;;5005884;28;20058;-80
2023/03/05 10:58:46;;;;;;;18.20;10.05;;;;;;;;;;5006146;28;20037;-78
2023/03/05 11:01:14;;;;;;;19.38;10.27;;;;;;;;;;5005248;28;20031;-80
2023/03/05 11:03:56;;;;;;;18.55;10.43;;;;;;;;;;5011907;28;20027;-80
2023/03/05 11:06:30;;;;;;;21.27;10.30;;;;;;;;;;4999941;28;20060;-80
2023/03/05 11:09:14;;;;;;;15.95;8.50;;;;;;;;;;4999635;28;20053;-79
2023/03/05 11:11:40;;;;;;;16.95;8.13;;;;;;;;;;5012320;28;20053;-80
2023/03/05 11:14:21;;;;;;;15.88;8.07;;;;;;;;;;5003239;28;20382;-79
2023/03/05 11:16:49;;;;;;;17.15;9.98;;;;;;;;;;5012450;28;20497;-80
2023/03/05 11:19:18;;;;;;;19.20;9.93;;;;;;;;;;5013544;28;20116;-80
2023/03/05 11:21:45;;;;;;;18.52;9.40;;;;;;;;;;5021056;28;20658;-78
2023/03/05 11:24:17;;;;;;;22.10;10.73;;;;;;;;;;5005425;28;20030;-80
2023/03/05 11:26:50;;;;;;;22.15;12.10;;;;;;;;;;5011473;28;20508;-78
2023/03/05 11:29:19;;;;;;;18.00;9.77;;;;;;;;;;5022185;28;20022;-79
2023/03/05 11:31:45;;;;;;;19.13;10.70;;;;;;;;;;5013644;28;20023;-80
2023/03/05 11:34:17;;;;;;;18.15;10.07;;;;;;;;;;5007940;28;20064;-80
2023/03/05 11:36:57;;;;;;;19.48;11.10;;;;;;;;;;5007890;28;20490;-80
2023/03/05 11:39:29;;;;;;;18.35;10.27;;;;;;;;;;5015351;28;20029;-80
2023/03/05 11:41:58;;;;;;;18.10;9.85;;;;;;;;;;5015845;28;20030;-81
2023/03/05 11:44:26;;;;;;;13.55;7.63;;;;;;;;;;5006977;28;20019;-80
2023/03/05 11:46:55;;;;;;;14.80;6.72;;;;;;;;;;5017100;28;20018;-80
2023/03/05 11:49:24;;;;;;;12.52;6.20;;;;;;;;;;5015451;28;20482;-80
2023/03/05 11:52:09;;;;;;;12.18;5.95;;;;;;;;;;5011681;28;20041;-81
2023/03/05 11:54:56;;;;;;;12.85;6.65;;;;;;;;;;5013094;28;20021;-81
2023/03/05 11:57:23;;;;;;;22.27;10.18;;;;;;;;;;5014446;28;20368;-81
2023/03/05 11:59:50;;;;;;;16.80;7.95;;;;;;;;;;5018619;28;20067;-81
2023/03/05 12:02:21;;;;;;;13.32;7.15;;;;;;;;;;5017780;28;20456;-81
2023/03/05 12:04:48;;;;;;;13.50;6.68;;;;;;;;;;5012761;28;20437;-80
2023/03/05 12:07:16;;;;;;;11.38;6.03;;;;;;;;;;5009168;28;20025;-81
2023/03/05 12:09:46;;;;;;;12.73;6.15;;;;;;;;;;5018059;28;20462;-81
2023/03/05 12:12:23;;;;;;;11.27;4.78;;;;;;;;;;5007084;28;20559;-81
2023/03/05 12:14:58;;;;;;;12.80;5.78;;;;;;;;;;5006016;28;20057;-82
2023/03/05 12:17:28;;;;;;;9.82;5.10;;;;;;;;;;5010712;28;20093;-80
2023/03/05 12:20:03;;;;;;;12.43;5.90;;;;;;;;;;5019486;28;20385;-82
2023/03/05 12:22:37;;;;;;;11.90;4.93;;;;;;;;;;5018299;28;20034;-81
2023/03/05 12:25:21;;;;;;;9.07;4.72;;;;;;;;;;5005892;28;20025;-81
2023/03/05 12:27:47;;;;;;;9.27;4.93;;;;;;;;;;5016525;28;20040;-81
2023/03/05 12:30:32;;;;;;;9.98;5.00;;;;;;;;;;5034139;28;20449;-81
2023/03/05 12:32:58;;;;;;;11.27;4.45;;;;;;;;;;5001866;28;20040;-80
2023/03/05 12:35:29;;;;;;;10.82;4.95;;;;;;;;;;5002538;28;20454;-81
2023/03/05 12:37:56;;;;;;;10.30;4.90;;;;;;;;;;5003026;28;20067;-81
2023/03/05 12:40:25;;;;;;;9.57;4.32;;;;;;;;;;5009475;28;20318;-81
2023/03/05 12:42:51;;;;;;;7.95;4.03;;;;;;;;;;5000900;28;20033;-81
2023/03/05 12:45:18;;;;;;;7.05;3.67;;;;;;;;;;4999159;28;20502;-80
2023/03/05 12:47:48;;;;;;;8.80;3.97;;;;;;;;;;5001316;28;20069;-81
2023/03/05 12:50:26;;;;;;;7.50;3.45;;;;;;;;;;5013224;28;20030;-81
2023/03/05 12:52:55;;;;;;;7.18;3.53;;;;;;;;;;5010519;28;20030;-81
2023/03/05 12:55:38;;;;;;;7.90;3.15;;;;;;;;;;5009210;28;20034;-81
2023/03/05 12:58:10;;;;;;;10.27;4.45;;;;;;;;;;5008765;28;20010;-81
2023/03/05 13:00:45;;;;;;;6.80;2.83;;;;;;;;;;5016563;28;20030;-81
2023/03/05 13:03:17;;;;;;;8.35;3.40;;;;;;;;;;5013178;28;20455;-81
2023/03/05 13:05:53;;;;;;;6.63;3.13;;;;;;;;;;5007092;28;20163;-81
2023/03/05 13:08:26;;;;;;;8.45;3.90;;;;;;;;;;5010519;28;20057;-80
2023/03/05 13:11:01;;;;;;;5.63;2.80;;;;;;;;;;5006375;28;20026;-81
2023/03/05 13:13:28;;;;;;;6.43;2.92;;;;;;;;;;5000970;28;20125;-81
2023/03/05 13:15:54;;;;;;;5.88;2.90;;;;;;;;;;5000723;28;20517;-81
2023/03/05 13:18:25;;;;;;;7.00;2.53;;;;;;;;;;5011532;28;20029;-80
2023/03/05 13:21:14;;;;;;;7.00;2.88;;;;;;;;;;5008631;28;20481;-81
2023/03/05 13:23:56;;;;;;;5.65;2.55;;;;;;;;;;5007897;28;20034;-80
2023/03/05 13:26:22;;;;;;;5.50;2.47;;;;;;;;;;5002812;28;20241;-82
2023/03/05 13:29:07;;;;;;;5.30;2.42;;;;;;;;;;5001507;28;20026;-82
2023/03/05 13:31:40;;;;;;;4.95;2.15;;;;;;;;;;4999448;28;20482;-82
2023/03/05 13:34:06;;;;;;;;;;;;;;;;;;5015395;28;20022;-82
2023/03/05 13:36:32;;;;;;;5.95;2.40;;;;;;;;;;5010905;28;19909;-82
2023/03/05 13:38:59;;;;;;;5.13;2.25;;;;;;;;;;5017553;28;20022;-81
2023/03/05 13:41:29;;;;;;;5.35;2.13;;;;;;;;;;5019939;28;20057;-82
2023/03/05 13:43:59;;;;;;;5.97;2.53;;;;;;;;;;5003129;28;20105;-81
2023/03/05 13:46:33;;;;;;;5.15;1.95;;;;;;;;;;5019558;28;20022;-81
2023/03/05 13:49:16;;;;;;;6.57;2.53;;;;;;;;;;5030715;28;20054;-81
2023/03/05 13:51:44;;;;;;;5.38;2.63;;;;;;;;;;5008227;28;20096;-81
2023/03/05 13:54:13;;;;;;;5.05;1.95;;;;;;;;;;5016123;28;20045;-80
2023/03/05 13:56:47;;;;;;;5.57;2.10;;;;;;;;;;5009128;28;20030;-81
2023/03/05 13:59:18;;;;;;;4.38;2.03;;;;;;;;;;5018388;28;20095;-81
2023/03/05 14:01:46;;;;;;;5.47;2.10;;;;;;;;;;5004558;28;20085;-81
2023/03/05 14:04:12;;;;;;;6.00;2.35;;;;;;;;;;5000251;28;20022;-82
2023/03/05 14:06:41;;;;;;;4.88;2.30;;;;;;;;;;5002063;28;20018;-80
2023/03/05 14:09:17;;;;;;;5.97;2.20;;;;;;;;;;5013900;28;20087;-82
2023/03/05 14:11:51;;;;;;;5.97;2.38;;;;;;;;;;4998416;28;20026;-82
2023/03/05 14:14:17;;;;;;;7.28;2.35;;;;;;;;;;4998159;28;20038;-81
2023/03/05 14:16:44;;;;;;;5.90;2.47;;;;;;;;;;4999039;28;20081;-81
2023/03/05 14:19:28;;;;;;;6.53;2.72;;;;;;;;;;5004627;28;20030;-81
2023/03/05 14:21:54;;;;;;;6.25;2.72;;;;;;;;;;5009181;28;20030;-81
2023/03/05 14:24:22;;;;;;;6.03;2.40;;;;;;;;;;5017050;28;20022;-81
2023/03/05 14:26:50;;;;;;;6.28;2.50;;;;;;;;;;5001130;28;20553;-81
2023/03/05 14:29:17;;;;;;;7.38;2.58;;;;;;;;;;4999435;28;20048;-81
2023/03/05 14:31:46;;;;;;;5.70;2.47;;;;;;;;;;5009847;28;20022;-81
2023/03/05 14:34:19;;;;;;;5.82;2.25;;;;;;;;;;5018460;28;20376;-81
2023/03/05 14:36:48;;;;;;;4.97;1.92;;;;;;;;;;5011102;28;20533;-80